首页
METAR-TAF:

METAR-TAF

机场 :

Crestview, 佛罗里达州, 美国

纬度: 30-46-20N, 经度: 086-31-12W, 海拔: 65米

当前天气观测

该预报发布于31分钟前的22:53 UTC
风速10节,风向北转西北
温度 27°C
湿度 70%
气压 1016 hPa
能見度: 16.1公里
多云层高于4200英尺
阴天层高于4900英尺

METAR: KCEW 132253Z AUTO 34010KT 10SM BKN042 OVC049 27/21 A3001 RMK AO2 SLP158 T02720206

时间: 18:24 (23:24 UTC)


TAF: 丢失

超过4000个机场的气象观测和天气预报(METAR&TAF报告)。

可查询的气象台以黄色和红色小点在地图上表示。

将鼠标移到小点上方,可查看气象台名称。

然后点击查看天气观测和预报。

如需切换地图:点击带黑十字的绿色按钮放大地图;点击带横线的绿色按钮缩小地图;或者点击绿色箭头查看邻近地区的地图。


METAR-TAF: